الصفحة الرئيسية
METAR-TAF:

METAR-TAF

مطار :

يلونايف, الأقاليم الشمالية الغربية, كندا

دائرة عرض: 62-28N, خط طول: 114-27W, ارتفاع: 205 متر

مراقبة الطقس الحالي

تاريخ ووقت الإصدار 23 دقيقة قبل الساعة 15:00UTC
ريح 4 عقدة من الشمال الغربي
درجة الحرارة -35°درجة مئوية
الرطوبة 66%
ضغط 1028 hPa
الرؤية: 24.1 كم
غيوم قليلة على ارتفاع 9000 قدم

METAR: CYZF 231500Z 31004KT 15SM FEW090 M35/M39 A3037 RMK AC1 AC TR SLP325

زمن: 08:23 (15:23 UTC)

توقعات

تاريخ ووقت الإصدار 3ساعات و 45 دقيقة قبل الساعة 11:38UTC
التوقعات صالحة من23 الساعة 12 UTC إلى 24 الساعة 12 UTC
ريح 8 عقدة من الشمال الغربي
الرؤية: 10 كم
سماء صافية
من 23 الساعة 1500 UTC
ريح 5 عقدة من الغرب
الرؤية: 10 كم
غيوم متفرقة على ارتفاع 6000 قدم
أصبح
من 23 الساعة 20 UTC إلى 23 الساعة 22 UTC
ريح 5 عقدة من الجنوب/الجنوب الشرقي

TAF: CYZF 231138Z 2312/2412 31008KT P6SM SKC FM231500 28005KT P6SM SCT060 BECMG 2320/2322 16005KT RMK NXT FCST BY 231800Z

أرصاد الطقس والتوقعات من أكثر من 4000 مطار (تقارير الطقس للمطار METAR والتنبؤ بالطقس بالمطارTAF).

المحطات المتاحة هي النقط الصفراء والحمراء على الخريطة.

حرك المؤشر فوق النقطة لمعرفة اسم المحطة.

ثم انقر لمعرفة أرصاد وتوقعات الطقس.

لتغيير الخارطة: اضغط على الأزرار الخضراء مع رمز الصليب الأسود للتكبير. على الزر الأخضر مع شرطة للتصغير، أو على الأسهم الخضراء للخرائط المجاورة.


METAR-TAF: